Terminal Aerodrome Forecast
Issued by NWS Twin Cities, MN

Home | Current Version | Previous Version | Text Only | Print | Product List | Glossary Off
Versions: 1 2 3 4 5 6 7 8 9 10 11 12 13 14 15 16 17 18 19 20 21 22 23 24 25 26 27

000
FTUS43 KMPX 280520
TAFMSP
TAF
KMSP 280520Z 2806/2912 15010KT P6SM OVC012
     FM280800 15010KT P6SM OVC009
     FM281400 15012KT P6SM OVC015
     FM282200 14007KT P6SM OVC012
     FM290200 VRB05KT P6SM OVC008
     FM290600 32012G19KT P6SM OVC008=

USA.gov is the U.S. government's official web portal to all federal, state and local government web resources and services.